createdAt,value
2023-05-09T00:01:42.664Z,10.75
2023-05-09T00:04:10.088Z,10.00
2023-05-09T00:06:37.053Z,10.25
2023-05-09T00:09:04.610Z,11.00
2023-05-09T00:11:31.584Z,10.25
2023-05-09T00:13:58.472Z,10.25
2023-05-09T00:16:25.434Z,8.00
2023-05-09T00:18:53.937Z,10.00
2023-05-09T00:21:20.849Z,10.25
2023-05-09T00:23:47.685Z,11.50
2023-05-09T00:26:14.531Z,11.00
2023-05-09T00:28:43.571Z,10.75
2023-05-09T00:31:10.624Z,12.50
2023-05-09T00:33:37.455Z,13.25
2023-05-09T00:36:06.672Z,13.00
2023-05-09T00:38:34.176Z,10.25
2023-05-09T00:41:01.050Z,10.25
2023-05-09T00:43:27.957Z,10.75
2023-05-09T00:45:55.381Z,11.00
2023-05-09T00:48:22.368Z,13.00
2023-05-09T00:50:49.239Z,10.50
2023-05-09T00:53:17.479Z,10.25
2023-05-09T00:55:44.995Z,9.75
2023-05-09T00:58:13.535Z,4.75
2023-05-09T01:00:40.776Z,10.25
2023-05-09T01:03:08.081Z,11.00
2023-05-09T01:05:52.090Z,7.75
2023-05-09T01:08:41.386Z,10.75
2023-05-09T01:11:18.393Z,9.75
2023-05-09T01:14:03.106Z,12.00
2023-05-09T01:16:38.670Z,7.25
2023-05-09T01:19:36.351Z,11.25
2023-05-09T01:22:09.140Z,6.75
2023-05-09T01:25:20.269Z,10.00
2023-05-09T01:27:58.460Z,11.00
2023-05-09T01:30:31.021Z,11.50
2023-05-09T01:33:21.609Z,13.50
2023-05-09T01:35:57.769Z,10.25
2023-05-09T01:38:33.821Z,13.00
2023-05-09T01:41:03.011Z,14.00
2023-05-09T01:43:32.820Z,12.25
2023-05-09T01:46:04.744Z,13.50
2023-05-09T01:48:35.835Z,11.00
2023-05-09T01:51:04.649Z,11.00
2023-05-09T01:53:36.009Z,7.25
2023-05-09T01:56:06.310Z,13.25
2023-05-09T01:58:35.587Z,13.00
2023-05-09T02:08:47.210Z,8.25
2023-05-09T02:11:15.888Z,14.75
2023-05-09T02:18:29.729Z,13.00
2023-05-09T02:20:58.642Z,9.00
2023-05-09T02:23:26.159Z,12.75
2023-05-09T02:25:53.261Z,10.50
2023-05-09T02:28:22.856Z,11.00
2023-05-09T02:30:53.082Z,13.00
2023-05-09T02:33:20.058Z,10.75
2023-05-09T02:35:47.844Z,15.50
2023-05-09T02:38:16.424Z,15.00
2023-05-09T02:40:43.782Z,13.75
2023-05-09T02:43:10.934Z,16.75
2023-05-09T02:45:37.743Z,14.00
2023-05-09T02:48:08.508Z,15.50
2023-05-09T02:50:36.131Z,14.50
2023-05-09T02:53:02.924Z,11.50
2023-05-09T02:55:31.239Z,13.50
2023-05-09T02:58:12.049Z,13.75
2023-05-09T03:00:41.021Z,13.25
2023-05-09T03:03:09.204Z,15.75
2023-05-09T03:05:36.214Z,14.00
2023-05-09T03:16:56.465Z,13.00
2023-05-09T03:19:37.708Z,16.00
2023-05-09T03:22:05.890Z,13.00
2023-05-09T03:24:37.535Z,12.67
2023-05-09T03:28:03.788Z,11.00
2023-05-09T03:30:32.468Z,13.25
2023-05-09T03:32:59.763Z,11.00
2023-05-09T03:35:26.849Z,16.75
2023-05-09T03:37:54.803Z,16.00
2023-05-09T03:40:22.083Z,14.00
2023-05-09T03:42:55.851Z,16.00
2023-05-09T03:45:22.772Z,14.25
2023-05-09T03:47:51.132Z,15.50
2023-05-09T03:50:18.708Z,13.75
2023-05-09T03:52:46.524Z,14.50
2023-05-09T03:55:16.357Z,14.25
2023-05-09T03:58:09.614Z,14.00
2023-05-09T04:00:41.778Z,13.75
2023-05-09T04:03:16.391Z,16.75
2023-05-09T04:05:46.888Z,14.75
2023-05-09T04:08:23.637Z,15.25
2023-05-09T04:10:51.140Z,14.00
2023-05-09T04:13:18.307Z,9.50
2023-05-09T04:15:46.263Z,16.50
2023-05-09T04:18:14.789Z,14.50
2023-05-09T04:20:41.675Z,14.25
2023-05-09T04:23:08.788Z,16.50
2023-05-09T04:25:36.032Z,12.25
2023-05-09T04:28:03.633Z,16.25
2023-05-09T04:30:30.818Z,14.75
2023-05-09T04:32:58.591Z,14.00
2023-05-09T04:35:30.028Z,13.50
2023-05-09T04:37:57.483Z,15.00
2023-05-09T04:40:26.904Z,12.75
2023-05-09T04:42:58.218Z,15.50
2023-05-09T04:45:28.940Z,13.00
2023-05-09T04:47:58.385Z,17.50
2023-05-09T04:50:25.397Z,16.00
2023-05-09T04:52:53.559Z,16.00
2023-05-09T04:55:20.683Z,13.75
2023-05-09T04:57:49.889Z,43.25
2023-05-09T05:00:17.226Z,11.50
2023-05-09T05:02:46.882Z,13.00
2023-05-09T05:05:14.638Z,14.00
2023-05-09T05:07:43.341Z,14.50
2023-05-09T05:10:14.379Z,13.50
2023-05-09T05:12:45.127Z,13.00
2023-05-09T05:15:13.940Z,13.50
2023-05-09T05:17:42.671Z,14.00
2023-05-09T05:20:11.134Z,15.50
2023-05-09T05:22:42.867Z,16.00
2023-05-09T05:25:10.462Z,13.00
2023-05-09T05:27:40.092Z,13.50
2023-05-09T05:30:09.572Z,16.00
2023-05-09T05:32:37.069Z,12.50
2023-05-09T05:35:05.142Z,13.50
2023-05-09T05:37:35.255Z,12.50
2023-05-09T05:40:02.780Z,14.50
2023-05-09T05:42:30.409Z,7.75
2023-05-09T05:44:59.183Z,12.50
2023-05-09T05:47:26.247Z,13.25
2023-05-09T05:49:53.669Z,16.00
2023-05-09T05:52:20.508Z,13.50
2023-05-09T05:54:47.355Z,14.50
2023-05-09T05:57:14.630Z,15.50
2023-05-09T05:59:41.634Z,14.00
2023-05-09T06:02:10.132Z,15.00
2023-05-09T06:04:37.057Z,12.75
2023-05-09T06:07:04.049Z,14.00
2023-05-09T06:09:30.980Z,17.50
2023-05-09T06:11:57.990Z,14.75
2023-05-09T06:14:25.438Z,16.00
2023-05-09T06:16:54.651Z,18.00
2023-05-09T06:19:22.907Z,14.25
2023-05-09T06:21:49.880Z,13.25
2023-05-09T06:24:31.679Z,13.50
2023-05-09T06:27:04.431Z,15.50
2023-05-09T06:29:31.308Z,14.75
2023-05-09T06:32:00.286Z,15.00
2023-05-09T06:34:28.522Z,14.50
2023-05-09T06:36:55.457Z,13.50
2023-05-09T06:39:22.384Z,16.00
2023-05-09T06:41:49.316Z,12.00
2023-05-09T06:44:24.505Z,17.00
2023-05-09T06:46:51.566Z,14.00
2023-05-09T06:49:18.373Z,19.25
2023-05-09T06:51:46.748Z,19.25
2023-05-09T06:54:13.542Z,13.25
2023-05-09T06:56:40.511Z,14.25
2023-05-09T06:59:07.553Z,16.00
2023-05-09T07:01:34.355Z,17.33
2023-05-09T07:04:01.163Z,17.75
2023-05-09T07:06:28.037Z,15.75
2023-05-09T07:08:56.173Z,17.50
2023-05-09T07:11:23.074Z,19.25
2023-05-09T07:13:50.010Z,14.75
2023-05-09T07:16:19.082Z,16.00
2023-05-09T07:18:46.286Z,15.50
2023-05-09T07:21:13.201Z,18.00
2023-05-09T07:23:39.967Z,15.50
2023-05-09T07:26:08.242Z,12.75
2023-05-09T07:28:35.325Z,15.00
2023-05-09T07:31:02.174Z,17.00
2023-05-09T07:33:29.409Z,18.00
2023-05-09T07:35:58.518Z,17.75
2023-05-09T07:38:25.572Z,15.75
2023-05-09T07:40:52.397Z,18.25
2023-05-09T07:43:20.713Z,15.25
2023-05-09T07:45:47.536Z,16.50
2023-05-09T07:48:14.648Z,16.25
2023-05-09T07:50:41.525Z,13.50
2023-05-09T07:53:09.167Z,15.00
2023-05-09T07:55:36.312Z,12.25
2023-05-09T07:58:03.202Z,18.50
2023-05-09T08:00:32.458Z,15.00
2023-05-09T08:03:00.028Z,13.25
2023-05-09T08:05:28.157Z,16.50
2023-05-09T08:07:54.927Z,15.50
2023-05-09T08:10:21.913Z,16.00
2023-05-09T08:12:48.929Z,12.50
2023-05-09T08:15:16.494Z,18.75
2023-05-09T08:17:44.999Z,14.00
2023-05-09T08:20:13.201Z,15.50
2023-05-09T08:22:40.666Z,16.25
2023-05-09T08:25:09.123Z,16.75
2023-05-09T08:27:37.299Z,16.00
2023-05-09T08:30:06.008Z,15.50
2023-05-09T08:32:33.864Z,14.25
2023-05-09T08:35:02.180Z,17.25
2023-05-09T08:37:30.197Z,14.50
2023-05-09T08:39:57.099Z,14.25
2023-05-09T08:42:26.789Z,11.50
2023-05-09T08:44:53.863Z,15.00
2023-05-09T08:47:23.322Z,13.80
2023-05-09T08:49:52.187Z,12.40
2023-05-09T08:52:21.713Z,16.20
2023-05-09T08:54:49.341Z,13.20
2023-05-09T08:57:16.388Z,14.20
2023-05-09T08:59:44.078Z,14.20
2023-05-09T09:02:14.241Z,14.00
2023-05-09T09:04:41.694Z,16.20
2023-05-09T09:07:10.830Z,11.60
2023-05-09T09:09:45.995Z,11.60
2023-05-09T09:12:16.070Z,13.20
2023-05-09T09:14:48.893Z,14.60
2023-05-09T09:17:21.143Z,11.00
2023-05-09T09:19:55.030Z,12.20
2023-05-09T09:22:23.130Z,12.40
2023-05-09T09:24:51.884Z,10.60
2023-05-09T09:27:18.792Z,11.40
2023-05-09T09:29:45.659Z,12.00
2023-05-09T09:32:13.158Z,12.20
2023-05-09T09:34:40.338Z,11.40
2023-05-09T09:37:07.695Z,10.80
2023-05-09T09:39:35.312Z,12.00
2023-05-09T09:42:13.073Z,12.60
2023-05-09T09:44:40.023Z,13.20
2023-05-09T09:47:10.516Z,13.20
2023-05-09T09:49:37.439Z,12.00
2023-05-09T09:52:04.378Z,13.20
2023-05-09T09:54:32.150Z,12.80
2023-05-09T09:56:59.076Z,14.40
2023-05-09T09:59:27.816Z,11.80
2023-05-09T10:02:02.937Z,13.80
2023-05-09T10:04:35.808Z,13.20
2023-05-09T10:07:05.260Z,13.20
2023-05-09T10:09:34.741Z,15.60
2023-05-09T10:12:05.195Z,12.40
2023-05-09T10:14:36.102Z,11.00
2023-05-09T10:17:32.190Z,13.20
2023-05-09T10:20:05.883Z,13.00
2023-05-09T10:22:36.514Z,13.00
2023-05-09T10:25:08.772Z,7.80
2023-05-09T10:27:37.708Z,12.20
2023-05-09T10:30:13.205Z,10.60
2023-05-09T10:32:51.973Z,9.00
2023-05-09T10:35:26.191Z,7.00
2023-05-09T10:37:56.309Z,12.00
2023-05-09T10:40:24.168Z,9.80
2023-05-09T10:42:51.268Z,11.60
2023-05-09T10:45:21.094Z,10.00
2023-05-09T10:47:51.698Z,10.00
2023-05-09T10:50:20.156Z,6.60
2023-05-09T10:53:10.448Z,9.40
2023-05-09T10:55:40.475Z,8.60
2023-05-09T10:58:23.596Z,11.00
2023-05-09T11:00:53.832Z,10.20
2023-05-09T11:03:23.871Z,7.60
2023-05-09T11:05:53.520Z,8.40
2023-05-09T11:08:26.064Z,8.80
2023-05-09T11:10:54.344Z,10.60
2023-05-09T11:13:23.475Z,10.00
2023-05-09T11:16:04.585Z,4.80
2023-05-09T11:18:33.719Z,7.20
2023-05-09T11:21:08.473Z,5.40
2023-05-09T11:23:35.536Z,5.00
2023-05-09T11:26:07.737Z,8.40
2023-05-09T11:28:37.021Z,6.40
2023-05-09T11:31:12.391Z,7.00
2023-05-09T11:33:42.471Z,7.80
2023-05-09T11:36:20.601Z,5.40
2023-05-09T11:38:47.966Z,5.00
2023-05-09T11:41:15.700Z,5.80
2023-05-09T11:43:43.710Z,6.00
2023-05-09T11:46:10.618Z,5.80
2023-05-09T11:48:40.581Z,5.80
2023-05-09T11:51:07.813Z,5.80
2023-05-09T11:53:34.758Z,5.00
2023-05-09T11:56:04.594Z,6.20
2023-05-09T11:58:34.027Z,6.40
2023-05-09T12:01:01.570Z,6.60
2023-05-09T12:03:29.431Z,5.40
2023-05-09T12:05:57.789Z,4.00
2023-05-09T12:08:25.192Z,5.20
2023-05-09T12:10:52.004Z,1.80
2023-05-09T12:13:19.133Z,5.60
2023-05-09T12:15:46.061Z,5.00
2023-05-09T12:18:13.192Z,4.80
2023-05-09T12:20:42.731Z,1.80
2023-05-09T12:23:11.678Z,4.60
2023-05-09T12:25:38.730Z,5.00
2023-05-09T12:28:06.344Z,5.00
2023-05-09T12:30:33.893Z,5.60
2023-05-09T12:33:01.070Z,4.00
2023-05-09T12:35:27.923Z,4.80
2023-05-09T12:37:55.995Z,5.80
2023-05-09T12:40:25.018Z,6.60
2023-05-09T12:42:51.980Z,6.00
2023-05-09T12:45:20.449Z,3.20
2023-05-09T12:47:52.204Z,4.80
2023-05-09T12:50:19.625Z,5.60
2023-05-09T12:53:02.578Z,2.60
2023-05-09T12:55:39.287Z,4.00
2023-05-09T12:58:06.149Z,4.80
2023-05-09T13:00:43.868Z,5.40
2023-05-09T13:03:29.790Z,5.00
2023-05-09T13:06:01.483Z,4.80
2023-05-09T13:08:29.985Z,5.80
2023-05-09T13:11:12.000Z,5.20
2023-05-09T13:13:42.895Z,5.00
2023-05-09T13:16:11.496Z,4.80
2023-05-09T13:18:39.614Z,5.00
2023-05-09T13:21:07.313Z,4.40
2023-05-09T13:23:34.283Z,2.60
2023-05-09T13:26:02.622Z,6.00
2023-05-09T13:28:30.781Z,4.40
2023-05-09T13:30:57.945Z,4.40
2023-05-09T13:33:26.572Z,5.20
2023-05-09T13:35:53.922Z,5.00
2023-05-09T13:38:21.835Z,4.80
2023-05-09T13:40:48.712Z,4.60
2023-05-09T13:43:18.066Z,4.60
2023-05-09T13:45:45.582Z,4.00
2023-05-09T13:48:12.515Z,5.60
2023-05-09T13:50:39.459Z,2.80
2023-05-09T13:53:09.301Z,5.20
2023-05-09T13:55:37.245Z,6.60
2023-05-09T13:58:04.691Z,5.60
2023-05-09T14:00:34.969Z,6.40
2023-05-09T14:03:03.190Z,5.60
2023-05-09T14:05:31.671Z,4.80
2023-05-09T14:07:58.508Z,4.00
2023-05-09T14:10:25.550Z,6.00
2023-05-09T14:12:53.569Z,4.20
2023-05-09T14:15:20.824Z,6.20
2023-05-09T14:17:49.268Z,3.80
2023-05-09T14:20:16.903Z,6.40
2023-05-09T14:22:44.656Z,5.80
2023-05-09T14:25:11.655Z,6.00
2023-05-09T14:27:38.587Z,5.40
2023-05-09T14:30:18.697Z,5.80
2023-05-09T14:32:45.541Z,5.00
2023-05-09T14:35:14.076Z,5.00
2023-05-09T14:37:40.994Z,5.60
2023-05-09T14:40:09.709Z,4.40
2023-05-09T14:42:36.610Z,5.20
2023-05-09T14:45:05.940Z,5.00
2023-05-09T14:47:32.838Z,4.00
2023-05-09T14:49:59.676Z,5.40
2023-05-09T14:52:28.089Z,4.20
2023-05-09T14:54:55.019Z,5.00
2023-05-09T14:57:22.762Z,5.40
2023-05-09T14:59:49.717Z,4.20
2023-05-09T15:02:16.566Z,5.00
2023-05-09T15:04:43.674Z,5.60
2023-05-09T15:07:11.053Z,5.00
2023-05-09T15:09:41.204Z,4.60
2023-05-09T15:12:08.243Z,3.40
2023-05-09T15:14:35.440Z,4.00
2023-05-09T15:17:02.628Z,5.40
2023-05-09T15:19:29.714Z,7.00
2023-05-09T15:21:56.603Z,8.20
2023-05-09T15:24:23.461Z,6.00
2023-05-09T15:26:52.095Z,6.00
2023-05-09T15:29:19.026Z,7.40
2023-05-09T15:31:45.909Z,5.20
2023-05-09T15:34:13.013Z,4.80
2023-05-09T15:36:40.114Z,5.80
2023-05-09T15:39:06.913Z,4.80
2023-05-09T15:41:34.974Z,6.40
2023-05-09T15:44:03.242Z,7.20
2023-05-09T15:46:30.327Z,6.00
2023-05-09T15:48:57.406Z,8.00
2023-05-09T15:51:24.717Z,5.60
2023-05-09T15:53:51.739Z,7.20
2023-05-09T15:56:18.850Z,5.80
2023-05-09T15:58:46.780Z,5.60
2023-05-09T16:01:15.143Z,4.40
2023-05-09T16:03:43.108Z,5.00
2023-05-09T16:06:10.069Z,3.00
2023-05-09T16:08:38.909Z,2.60
2023-05-09T16:11:06.729Z,2.00
2023-05-09T16:13:35.702Z,1.00
2023-05-09T16:16:03.788Z,1.60
2023-05-09T16:18:32.605Z,1.00
2023-05-09T16:20:59.429Z,0.00
2023-05-09T16:23:26.217Z,1.00
2023-05-09T16:25:53.569Z,1.60
2023-05-09T16:28:20.504Z,1.00
2023-05-09T16:30:47.610Z,0.00
2023-05-09T16:33:14.391Z,0.40
2023-05-09T16:35:42.709Z,0.00
2023-05-09T16:38:09.651Z,0.60
2023-05-09T16:40:37.062Z,0.00
2023-05-09T16:43:04.060Z,0.80
2023-05-09T16:45:30.921Z,0.60
2023-05-09T16:48:00.708Z,0.00
2023-05-09T16:50:29.025Z,0.00
2023-05-09T16:52:57.225Z,0.20
2023-05-09T16:55:25.176Z,0.00
2023-05-09T16:57:52.280Z,1.60
2023-05-09T17:00:20.768Z,1.00
2023-05-09T17:02:47.731Z,1.00
2023-05-09T17:05:15.043Z,1.00
2023-05-09T17:07:42.746Z,1.00
2023-05-09T17:10:12.712Z,0.00
2023-05-09T17:12:39.560Z,1.00
2023-05-09T17:15:08.970Z,1.00
2023-05-09T17:17:35.850Z,1.00
2023-05-09T17:20:03.197Z,0.20
2023-05-09T17:22:31.394Z,1.80
2023-05-09T17:24:58.343Z,2.20
2023-05-09T17:27:26.744Z,10.80
2023-05-09T17:29:53.601Z,1.20
2023-05-09T17:32:20.455Z,1.20
2023-05-09T17:34:47.328Z,1.00
2023-05-09T17:37:14.360Z,1.00
2023-05-09T17:39:41.904Z,1.00
2023-05-09T17:42:08.727Z,0.00
2023-05-09T17:44:37.005Z,1.00
2023-05-09T17:47:04.238Z,0.60
2023-05-09T17:49:31.063Z,2.00
2023-05-09T17:51:58.193Z,2.00
2023-05-09T17:54:25.355Z,3.40
2023-05-09T17:56:53.691Z,2.00
2023-05-09T17:59:22.205Z,3.00
2023-05-09T18:01:50.560Z,3.00
2023-05-09T18:04:20.149Z,3.40
2023-05-09T18:06:48.704Z,3.80
2023-05-09T18:09:16.493Z,3.00
2023-05-09T18:11:43.341Z,4.80
2023-05-09T18:14:11.171Z,3.40
2023-05-09T18:16:38.250Z,3.60
2023-05-09T18:19:06.583Z,4.60
2023-05-09T18:21:33.456Z,5.00
2023-05-09T18:24:01.130Z,3.00
2023-05-09T18:26:29.246Z,3.00
2023-05-09T18:28:56.533Z,6.00
2023-05-09T18:31:23.966Z,3.00
2023-05-09T18:33:50.818Z,3.00
2023-05-09T18:36:19.116Z,4.60
2023-05-09T18:38:46.036Z,3.80
2023-05-09T18:41:13.614Z,3.80
2023-05-09T18:43:44.242Z,3.00
2023-05-09T18:46:12.482Z,4.60
2023-05-09T18:48:39.313Z,3.00
2023-05-09T18:51:07.091Z,2.80
2023-05-09T18:53:36.354Z,4.60
2023-05-09T18:56:04.611Z,6.00
2023-05-09T18:58:32.349Z,3.00
2023-05-09T19:00:59.803Z,5.00
2023-05-09T19:03:26.782Z,3.80
2023-05-09T19:05:54.695Z,5.40
2023-05-09T19:08:22.003Z,10.75
2023-05-09T19:10:50.468Z,3.20
2023-05-09T19:13:17.522Z,2.00
2023-05-09T19:19:45.388Z,3.00
2023-05-09T19:22:12.689Z,2.80
2023-05-09T19:24:40.015Z,4.40
2023-05-09T19:27:08.333Z,2.40
2023-05-09T19:29:35.227Z,3.20
2023-05-09T19:32:03.412Z,2.00
2023-05-09T19:39:01.940Z,2.40
2023-05-09T19:41:29.352Z,3.20
2023-05-09T19:43:57.523Z,2.60
2023-05-09T19:46:24.668Z,3.80
2023-05-09T19:48:52.398Z,2.20
2023-05-09T19:51:20.395Z,3.00
2023-05-09T19:53:47.320Z,2.00
2023-05-09T19:56:14.251Z,2.00
2023-05-09T19:58:41.100Z,2.00
2023-05-09T20:01:09.410Z,1.80
2023-05-09T20:03:36.364Z,2.00
2023-05-09T20:06:04.301Z,2.00
2023-05-09T20:08:31.363Z,2.00
2023-05-09T20:10:58.225Z,1.00
2023-05-09T20:13:25.672Z,0.60
2023-05-09T20:15:52.780Z,1.00
2023-05-09T20:18:21.082Z,0.60
2023-05-09T20:20:48.169Z,1.40
2023-05-09T20:23:15.169Z,0.40
2023-05-09T20:25:42.108Z,1.50
2023-05-09T20:28:09.656Z,1.00
2023-05-09T20:30:37.387Z,1.25
2023-05-09T20:33:05.379Z,1.00
2023-05-09T20:35:33.800Z,2.00
2023-05-09T20:38:00.671Z,1.00
2023-05-09T20:40:27.928Z,1.00
2023-05-09T20:42:54.849Z,1.75
2023-05-09T20:45:22.136Z,1.00
2023-05-09T20:47:48.989Z,1.25
2023-05-09T20:50:17.109Z,0.00
2023-05-09T20:52:45.834Z,0.00
2023-05-09T20:55:12.690Z,2.00
2023-05-09T20:57:40.778Z,1.00
2023-05-09T21:00:09.454Z,0.75
2023-05-09T21:02:37.864Z,1.00
2023-05-09T21:05:06.256Z,1.00
2023-05-09T21:07:33.206Z,1.00
2023-05-09T21:10:01.463Z,0.75
2023-05-09T21:12:28.505Z,2.00
2023-05-09T21:14:55.323Z,0.25
2023-05-09T21:17:23.550Z,1.00
2023-05-09T21:19:50.672Z,1.00
2023-05-09T21:22:17.821Z,2.00
2023-05-09T21:24:44.945Z,0.00
2023-05-09T21:27:13.604Z,0.00
2023-05-09T21:29:40.715Z,0.25
2023-05-09T21:32:07.633Z,1.50
2023-05-09T21:34:34.832Z,1.00
2023-05-09T21:37:01.639Z,0.75
2023-05-09T21:39:28.504Z,1.75
2023-05-09T21:41:55.712Z,1.75
2023-05-09T21:44:23.936Z,2.00
2023-05-09T21:46:51.150Z,1.00
2023-05-09T21:49:19.078Z,1.00
2023-05-09T21:51:46.240Z,2.00
2023-05-09T21:54:13.189Z,1.25
2023-05-09T21:56:40.333Z,1.00
2023-05-09T21:59:07.394Z,3.00
2023-05-09T22:01:35.966Z,1.00
2023-05-09T22:04:02.976Z,1.00
2023-05-09T22:06:31.161Z,1.50
2023-05-09T22:08:58.233Z,2.00
2023-05-09T22:11:25.240Z,1.75
2023-05-09T22:14:27.813Z,1.00
2023-05-09T22:16:56.165Z,2.00
2023-05-09T22:19:26.331Z,1.25
2023-05-09T22:21:53.532Z,1.00
2023-05-09T22:24:20.354Z,1.00
2023-05-09T22:26:47.649Z,2.00
2023-05-09T22:29:14.635Z,2.00
2023-05-09T22:31:42.255Z,1.00
2023-05-09T22:34:10.580Z,2.00
2023-05-09T22:36:40.266Z,2.00
2023-05-09T22:39:07.537Z,1.75
2023-05-09T22:41:34.611Z,1.00
2023-05-09T22:44:01.518Z,3.50
2023-05-09T22:46:28.567Z,2.00
2023-05-09T22:48:55.957Z,1.00
2023-05-09T22:51:24.278Z,4.00
2023-05-09T22:53:51.187Z,1.00
2023-05-09T22:56:18.079Z,2.00
2023-05-09T22:58:44.963Z,3.00
2023-05-09T23:01:12.217Z,2.00
2023-05-09T23:03:39.351Z,2.00
2023-05-09T23:06:07.105Z,1.75
2023-05-09T23:08:35.418Z,2.00
2023-05-09T23:11:02.387Z,2.25
2023-05-09T23:13:29.508Z,1.00
2023-05-09T23:15:56.498Z,1.00
2023-05-09T23:18:23.380Z,1.25
2023-05-09T23:20:50.322Z,1.00
2023-05-09T23:23:27.197Z,0.00
2023-05-09T23:25:56.035Z,0.50
2023-05-09T23:28:23.480Z,1.00
2023-05-09T23:30:50.359Z,1.00
2023-05-09T23:33:17.625Z,1.00
2023-05-09T23:35:44.463Z,0.00
2023-05-09T23:38:11.409Z,1.00
2023-05-09T23:40:38.315Z,1.00
2023-05-09T23:43:06.578Z,0.25
2023-05-09T23:45:33.619Z,0.75
2023-05-09T23:48:00.535Z,0.50
2023-05-09T23:50:27.439Z,0.00
2023-05-09T23:52:54.424Z,0.00
2023-05-09T23:55:21.303Z,0.00
2023-05-09T23:57:48.156Z,0.00
